.
WxDataArchive / Data Records for 2015-03-19
2015-03-18 March 2015 2015-03-20

Data Records for Thursday, 19 March 2015

Time	Temp	Chill	HIndex	Humid	Dewpt	 Wind 	HiWind	WindDir	Rain 	Barom
-----	----	-----	------	-----	-----	------	------	-------	-----	-----
00:00	39.6	39.6	39.6	42	18.4	0	1	315	0.00	30.246 
00:05	39.6	39.6	39.6	42	18.4	0	0	---	0.00	30.246 
00:10	39.5	39.5	39.5	42	18.3	0	0	---	0.00	30.246 
00:15	39.3	39.3	39.3	42	18.1	0	0	---	0.00	30.251 
00:20	39.3	39.3	39.3	42	18.1	0	0	---	0.00	30.251 
00:25	39.2	39.2	39.2	42	18.1	0	0	---	0.00	30.251 
00:30	39.2	39.2	39.2	42	18.1	0	0	---	0.00	30.248 
00:35	39.1	39.1	39.1	42	18.0	0	0	---	0.00	30.248 
00:40	39.1	39.1	39.1	43	18.5	0	0	---	0.00	30.248 
00:45	38.9	38.9	38.9	43	18.3	0	0	---	0.00	30.246 
00:50	38.8	38.8	38.8	43	18.2	0	0	---	0.00	30.246 
00:55	38.6	38.6	38.6	43	18.1	0	0	---	0.00	30.246 
01:00	38.6	38.6	38.6	44	18.6	0	0	---	0.00	30.245 
01:05	38.5	38.5	38.5	44	18.5	0	0	---	0.00	30.245 
01:10	38.3	38.3	38.3	44	18.3	0	0	---	0.00	30.245 
01:15	38.2	38.2	38.2	44	18.2	0	1	315	0.00	30.242 
01:20	38.2	38.2	38.2	44	18.2	0	0	---	0.00	30.242 
01:25	38.2	38.2	38.2	44	18.2	0	0	---	0.00	30.242 
01:30	38.2	38.2	38.2	44	18.2	0	0	---	0.00	30.242 
01:35	38.0	38.0	38.0	44	18.0	0	0	---	0.00	30.242 
01:40	38.0	38.0	38.0	45	18.6	0	0	---	0.00	30.242 
01:45	37.9	37.9	37.9	45	18.5	0	0	---	0.00	30.243 
01:50	37.8	37.8	37.8	46	18.9	0	0	---	0.00	30.243 
01:55	37.6	37.6	37.6	46	18.7	0	0	---	0.00	30.243 
02:00	37.6	37.6	37.6	46	18.7	0	0	---	0.00	30.242 
02:05	37.5	37.5	37.5	47	19.1	0	0	---	0.00	30.242 
02:10	37.5	37.5	37.5	47	19.1	0	1	315	0.00	30.242 
02:15	37.3	37.3	37.3	48	19.4	0	0	---	0.00	30.242 
02:20	37.3	37.3	37.3	48	19.4	0	0	---	0.00	30.242 
02:25	37.3	37.3	37.3	48	19.4	0	0	---	0.00	30.242 
02:30	37.2	37.2	37.2	49	19.8	0	1	315	0.00	30.243 
02:35	37.2	37.2	37.2	49	19.8	0	1	315	0.00	30.243 
02:40	37.2	37.2	37.2	49	19.8	0	1	315	0.00	30.243 
02:45	37.2	37.2	37.2	49	19.8	0	1	315	0.00	30.243 
02:50	37.2	37.2	37.2	49	19.8	0	1	315	0.00	30.243 
02:55	37.2	37.2	37.2	49	19.8	0	1	315	0.00	30.243 
03:00	37.2	37.2	37.2	48	19.3	0	2	315	0.00	30.245 
03:05	37.2	37.2	37.2	48	19.3	0	1	315	0.00	30.245 
03:10	37.0	37.0	37.0	49	19.6	0	1	315	0.00	30.245 
03:15	37.0	37.0	37.0	49	19.6	0	2	315	0.00	30.250 
03:20	37.0	37.0	37.0	48	19.2	0	1	315	0.00	30.250 
03:25	37.0	37.0	37.0	49	19.6	0	1	315	0.00	30.250 
03:30	36.9	36.9	36.9	49	19.5	0	1	315	0.00	30.251 
03:35	36.9	36.9	36.9	49	19.5	0	2	315	0.00	30.251 
03:40	36.8	36.8	36.8	49	19.5	0	1	315	0.00	30.251 
03:45	36.8	36.8	36.8	49	19.5	0	2	315	0.00	30.249 
03:50	36.8	36.8	36.8	49	19.5	0	1	315	0.00	30.249 
03:55	36.6	36.6	36.6	49	19.3	1	4	68	0.00	30.249 
04:00	36.6	36.6	36.6	49	19.3	0	2	68	0.00	30.254 
04:05	36.6	36.6	36.6	49	19.3	1	4	68	0.00	30.254 
04:10	36.6	36.6	36.6	48	18.8	1	4	112	0.00	30.254 
04:15	36.5	36.5	36.5	48	18.7	1	4	112	0.00	30.256 
04:20	36.5	36.5	36.5	48	18.7	1	2	112	0.00	30.256 
04:25	36.3	36.3	36.3	49	19.0	1	3	112	0.00	30.256 
04:30	36.3	36.3	36.3	48	18.5	1	4	112	0.00	30.257 
04:35	36.2	36.2	36.2	48	18.4	1	3	112	0.00	30.257 
04:40	36.2	36.2	36.2	48	18.4	1	2	112	0.00	30.257 
04:45	36.2	36.2	36.2	48	18.4	1	3	112	0.00	30.257 
04:50	36.0	36.0	36.0	49	18.7	1	3	112	0.00	30.257 
04:55	35.9	35.9	35.9	50	19.1	1	2	112	0.00	30.257 
05:00	35.8	35.8	35.8	50	19.0	0	2	112	0.00	30.257 
05:05	35.6	35.6	35.6	51	19.3	1	2	112	0.00	30.257 
05:10	35.6	35.6	35.6	51	19.3	1	4	112	0.00	30.257 
05:15	35.5	35.5	35.5	52	19.6	0	2	112	0.00	30.259 
05:20	35.3	35.3	35.3	53	19.9	0	2	112	0.00	30.259 
05:25	35.2	35.2	35.2	53	19.8	1	3	112	0.00	30.259 
05:30	35.2	35.2	35.2	53	19.8	0	2	112	0.00	30.260 
05:35	35.0	35.0	35.0	53	19.6	1	2	112	0.00	30.260 
05:40	35.0	35.0	35.0	53	19.6	1	3	112	0.00	30.260 
05:45	34.9	34.9	34.9	53	19.5	1	4	112	0.00	30.261 
05:50	34.7	34.7	34.7	54	19.8	0	3	112	0.00	30.261 
05:55	34.6	34.6	34.6	54	19.7	0	2	112	0.00	30.261 
06:00	34.4	34.4	34.4	54	19.5	0	2	112	0.00	30.260 
06:05	34.4	34.4	34.4	55	19.9	0	2	112	0.00	30.260 
06:10	34.3	34.3	34.3	55	19.8	0	2	112	0.00	30.260 
06:15	34.3	34.3	34.3	55	19.8	0	2	112	0.00	30.268 
06:20	34.1	34.1	34.1	55	19.6	0	2	112	0.00	30.268 
06:25	34.1	34.1	34.1	55	19.6	1	2	112	0.00	30.268 
06:30	34.0	34.0	34.0	55	19.6	1	3	112	0.00	30.275 
06:35	33.8	33.8	33.8	56	19.8	0	1	112	0.00	30.275 
06:40	33.7	33.7	33.7	56	19.7	0	1	112	0.00	30.275 
06:45	33.5	33.5	33.5	56	19.5	0	1	112	0.00	30.276 
06:50	33.4	33.4	33.4	56	19.4	1	2	112	0.00	30.276 
06:55	33.2	33.2	33.2	57	19.6	1	2	112	0.00	30.276 
07:00	33.2	33.2	33.2	56	19.2	1	3	112	0.00	30.279 
07:05	33.2	33.2	33.2	57	19.6	0	3	112	0.00	30.279 
07:10	33.4	33.4	33.4	57	19.8	1	4	112	0.00	30.279 
07:15	33.4	33.4	33.4	57	19.8	1	6	112	0.00	30.277 
07:20	33.4	33.4	33.4	56	19.4	2	5	112	0.00	30.277 
07:25	33.4	33.4	33.4	56	19.4	2	5	112	0.00	30.277 
07:30	33.5	33.5	33.5	55	19.1	2	5	112	0.00	30.280 
07:35	33.5	33.5	33.5	56	19.5	1	4	112	0.00	30.280 
07:40	33.5	33.5	33.5	56	19.5	1	3	112	0.00	30.280 
07:45	33.5	33.5	33.5	56	19.5	1	4	112	0.00	30.283 
07:50	33.5	33.5	33.5	57	19.9	2	5	112	0.00	30.283 
07:55	33.5	33.5	33.5	56	19.5	2	5	112	0.00	30.283 
08:00	33.5	33.5	33.5	56	19.5	2	5	112	0.00	30.293 
08:05	33.5	33.5	33.5	57	19.9	2	6	90	0.00	30.293 
08:10	33.5	33.5	33.5	57	19.9	2	5	112	0.00	30.293 
08:15	33.5	33.5	33.5	57	19.9	1	3	112	0.00	30.298 
08:20	33.5	33.5	33.5	58	20.3	2	5	112	0.00	30.298 
08:25	33.5	33.5	33.5	58	20.3	2	6	112	0.00	30.298 
08:30	33.5	33.5	33.5	57	19.9	3	6	112	0.00	30.304 
08:35	33.5	33.5	33.5	57	19.9	2	6	112	0.00	30.304 
08:40	33.5	33.5	33.5	57	19.9	3	6	90	0.00	30.304 
08:45	33.7	33.7	33.7	57	20.1	2	6	90	0.00	30.308 
08:50	33.7	33.7	33.7	58	20.5	3	7	90	0.00	30.308 
08:55	33.7	33.7	33.7	58	20.5	3	7	90	0.00	30.308 
09:00	33.7	33.7	33.7	57	20.1	3	7	90	0.00	30.310 
09:05	33.7	30.0	33.7	58	20.5	4	11	90	0.00	30.310 
09:10	33.7	30.0	33.7	58	20.5	4	11	90	0.00	30.310 
09:15	34.0	34.0	34.0	58	20.8	2	6	90	0.00	30.308 
09:20	34.6	34.6	34.6	58	21.4	3	6	90	0.00	30.308 
09:25	35.0	35.0	35.0	57	21.3	3	7	90	0.00	30.308 
09:30	35.3	35.3	35.3	57	21.6	3	7	90	0.00	30.311 
09:35	35.5	35.5	35.5	56	21.4	3	9	112	0.00	30.311 
09:40	35.6	35.6	35.6	56	21.5	2	6	90	0.00	30.311 
09:45	35.6	32.2	35.6	54	20.6	4	11	90	0.00	30.311 
09:50	35.3	31.0	35.3	55	20.8	5	11	112	0.00	30.311 
09:55	35.2	31.8	35.2	56	21.1	4	13	112	0.00	30.311 
10:00	35.5	35.5	35.5	56	21.4	3	9	112	0.00	30.314 
10:05	35.8	32.5	35.8	55	21.2	4	9	90	0.00	30.314 
10:10	35.9	32.6	35.9	54	20.9	4	12	90	0.00	30.314 
10:15	36.0	32.7	36.0	54	21.0	4	11	90	0.00	30.312 
10:20	36.2	32.0	36.2	53	20.7	5	11	90	0.00	30.312 
10:25	36.3	32.1	36.3	54	21.3	5	12	90	0.00	30.312 
10:30	36.6	33.4	36.6	51	20.2	4	10	112	0.00	30.312 
10:35	36.9	32.1	36.9	49	19.5	6	14	90	0.00	30.312 
10:40	37.3	32.5	37.3	46	18.4	6	12	112	0.00	30.312 
10:45	37.2	33.2	37.2	47	18.8	5	13	112	0.00	30.312 
10:50	36.9	32.1	36.9	46	18.1	6	13	112	0.00	30.312 
10:55	36.9	32.8	36.9	46	18.1	5	11	90	0.00	30.312 
11:00	37.0	32.2	37.0	43	16.6	6	14	90	0.00	30.313 
11:05	37.2	31.8	37.2	44	17.3	7	14	90	0.00	30.313 
11:10	37.3	32.5	37.3	44	17.4	6	13	90	0.00	30.313 
11:15	37.5	32.8	37.5	42	16.5	6	13	90	0.00	30.307 
11:20	37.6	32.9	37.6	40	15.5	6	13	112	0.00	30.307 
11:25	37.6	32.9	37.6	40	15.5	6	11	90	0.00	30.307 
11:30	37.5	32.1	37.5	41	16.0	7	13	90	0.00	30.303 
11:35	37.9	34.9	37.9	42	16.9	4	10	112	0.00	30.303 
11:40	38.2	33.6	38.2	40	16.0	6	13	90	0.00	30.303 
11:45	38.5	34.0	38.5	39	15.7	6	12	112	0.00	30.296 
11:50	38.3	33.1	38.3	39	15.5	7	14	90	0.00	30.296 
11:55	38.3	33.1	38.3	37	14.3	7	14	90	0.00	30.296 
12:00	38.3	33.7	38.3	39	15.5	6	12	90	0.00	30.293 
12:05	38.8	34.3	38.8	38	15.4	6	11	90	0.00	30.293 
12:10	39.3	36.5	39.3	37	15.2	4	9	90	0.00	30.293 
12:15	39.5	35.2	39.5	35	14.1	6	15	112	0.00	30.283 
12:20	39.5	35.2	39.5	35	14.1	6	12	90	0.00	30.283 
12:25	39.6	35.3	39.6	35	14.2	6	11	90	0.00	30.283 
12:30	39.8	34.9	39.8	35	14.4	7	15	90	0.00	30.280 
12:35	40.2	36.7	40.2	34	14.1	5	12	112	0.00	30.280 
12:40	40.3	36.1	40.3	36	15.5	6	15	90	0.00	30.280 
12:45	40.9	37.5	40.9	38	17.3	5	12	90	0.00	30.277 
12:50	40.9	36.8	40.9	35	15.4	6	12	90	0.00	30.277 
12:55	41.1	38.6	41.1	39	18.1	4	11	90	0.00	30.277 
13:00	41.1	36.5	41.1	35	15.6	7	15	112	0.00	30.272 
13:05	41.2	37.9	41.2	37	16.9	5	12	112	0.00	30.272 
13:10	41.6	38.4	41.6	35	16.0	5	13	112	0.00	30.272 
13:15	41.6	37.7	41.6	36	16.6	6	12	112	0.00	30.262 
13:20	42.1	38.3	42.1	36	17.1	6	13	112	0.00	30.262 
13:25	42.5	38.7	42.5	35	16.8	6	11	112	0.00	30.262 
13:30	42.6	39.5	42.6	36	17.5	5	9	90	0.00	30.255 
13:35	42.6	38.3	42.6	31	14.1	7	14	90	0.00	30.255 
13:40	42.6	39.5	42.6	33	15.5	5	15	90	0.00	30.255 
13:45	42.8	39.1	42.8	31	14.3	6	13	90	0.00	30.246 
13:50	42.9	38.6	42.9	31	14.4	7	13	112	0.00	30.246 
13:55	42.9	39.2	42.9	34	16.5	6	15	90	0.00	30.246 
14:00	43.2	39.6	43.2	31	14.6	6	11	90	0.00	30.236 
14:05	43.6	40.7	43.6	33	16.4	5	11	112	0.00	30.236 
14:10	43.3	38.6	43.3	32	15.4	8	14	90	0.00	30.236 
14:15	43.6	41.5	43.6	33	16.4	4	10	90	0.00	30.235 
14:20	43.5	40.6	43.5	34	17.0	5	12	90	0.00	30.235 
14:25	43.5	41.4	43.5	32	15.6	4	10	112	0.00	30.235 
14:30	43.5	40.6	43.5	32	15.6	5	12	90	0.00	30.229 
14:35	43.5	39.9	43.5	31	14.9	6	14	90	0.00	30.229 
14:40	43.8	43.8	43.8	31	15.2	3	9	90	0.00	30.229 
14:45	44.1	42.1	44.1	32	16.1	4	10	90	0.00	30.221 
14:50	44.1	42.1	44.1	33	16.9	4	10	90	0.00	30.221 
14:55	44.2	42.2	44.2	32	16.2	4	11	112	0.00	30.221 
15:00	44.3	42.3	44.3	34	17.7	4	11	112	0.00	30.214 
15:05	44.5	44.5	44.5	35	18.6	3	12	90	0.00	30.214 
15:10	44.3	41.5	44.3	33	17.0	5	11	90	0.00	30.214 
15:15	44.5	42.5	44.5	32	16.5	4	10	90	0.00	30.206 
15:20	44.3	44.3	44.3	35	18.4	3	9	90	0.00	30.206 
15:25	44.3	44.3	44.3	32	16.3	3	9	90	0.00	30.206 
15:30	44.1	42.1	44.1	34	17.5	4	10	112	0.00	30.201 
15:35	44.1	42.1	44.1	32	16.1	4	11	90	0.00	30.201 
15:40	44.1	42.1	44.1	35	18.2	4	9	90	0.00	30.201 
15:45	44.1	42.1	44.1	32	16.1	4	10	90	0.00	30.198 
15:50	43.9	41.8	43.9	33	16.7	4	9	112	0.00	30.198 
15:55	44.2	44.2	44.2	34	17.6	2	7	112	0.00	30.198 
16:00	44.5	42.5	44.5	31	15.8	4	11	112	0.00	30.188 
16:05	44.5	42.5	44.5	31	15.8	4	11	90	0.00	30.188 
16:10	44.6	42.6	44.6	31	15.9	4	10	90	0.00	30.188 
16:15	44.9	44.9	44.9	32	16.8	3	9	90	0.00	30.183 
16:20	44.8	42.9	44.8	31	16.0	4	9	90	0.00	30.183 
16:25	44.8	44.8	44.8	31	16.0	2	10	112	0.00	30.183 
16:30	44.8	42.9	44.8	31	16.0	4	9	90	0.00	30.181 
16:35	44.6	42.6	44.6	31	15.9	4	10	90	0.00	30.181 
16:40	44.6	42.6	44.6	29	14.3	4	10	90	0.00	30.181 
16:45	44.9	44.9	44.9	31	16.1	3	9	90	0.00	30.179 
16:50	44.6	41.2	44.6	29	14.3	6	12	90	0.00	30.179 
16:55	44.5	41.8	44.5	31	15.8	5	10	90	0.00	30.179 
17:00	44.3	41.5	44.3	29	14.1	5	11	90	0.00	30.179 
17:05	44.5	44.5	44.5	29	14.2	2	5	90	0.00	30.179 
17:10	44.6	42.6	44.6	29	14.3	4	7	90	0.00	30.179 
17:15	44.5	42.5	44.5	28	13.4	4	7	90	0.00	30.179 
17:20	44.5	42.5	44.5	30	15.0	4	9	90	0.00	30.179 
17:25	44.5	42.5	44.5	30	15.0	4	8	90	0.00	30.179 
17:30	44.5	44.5	44.5	29	14.2	3	9	90	0.00	30.168 
17:35	44.5	44.5	44.5	29	14.2	3	10	90	0.00	30.168 
17:40	44.5	44.5	44.5	30	15.0	2	7	90	0.00	30.168 
17:45	44.5	44.5	44.5	32	16.5	1	5	112	0.00	30.166 
17:50	44.3	42.3	44.3	30	14.8	4	7	112	0.00	30.166 
17:55	44.2	44.2	44.2	31	15.5	3	6	112	0.00	30.166 
18:00	44.1	42.1	44.1	31	15.4	4	10	90	0.00	30.158 
18:05	43.9	41.8	43.9	31	15.2	4	9	90	0.00	30.158 
18:10	43.9	41.8	43.9	32	16.0	4	7	90	0.00	30.158 
18:15	43.9	41.8	43.9	32	16.0	4	7	112	0.00	30.156 
18:20	43.8	41.7	43.8	31	15.2	4	11	90	0.00	30.156 
18:25	43.8	41.7	43.8	33	16.6	4	9	90	0.00	30.156 
18:30	43.8	43.8	43.8	33	16.6	3	6	90	0.00	30.155 
18:35	43.6	43.6	43.6	33	16.4	3	6	90	0.00	30.155 
18:40	43.6	43.6	43.6	33	16.4	3	10	90	0.00	30.155 
18:45	43.5	43.5	43.5	35	17.7	2	6	112	0.00	30.154 
18:50	43.5	43.5	43.5	35	17.7	2	6	112	0.00	30.154 
18:55	43.3	43.3	43.3	35	17.5	3	7	90	0.00	30.154 
19:00	43.2	43.2	43.2	36	18.1	3	8	90	0.00	30.152 
19:05	43.2	43.2	43.2	37	18.7	2	7	112	0.00	30.152 
19:10	43.1	43.1	43.1	39	19.8	2	6	112	0.00	30.152 
19:15	42.9	42.9	42.9	40	20.3	1	5	135	0.00	30.152 
19:20	42.8	42.8	42.8	40	20.2	2	7	112	0.00	30.152 
19:25	42.6	40.3	42.6	40	20.0	4	10	90	0.00	30.152 
19:30	42.6	42.6	42.6	42	21.1	1	7	90	0.00	30.150 
19:35	42.3	42.3	42.3	44	22.0	2	7	112	0.00	30.150 
19:40	42.2	42.2	42.2	45	22.4	2	6	90	0.00	30.150 
19:45	41.9	41.9	41.9	46	22.6	2	7	112	0.00	30.152 
19:50	41.6	41.6	41.6	46	22.4	1	5	90	0.00	30.152 
19:55	41.5	41.5	41.5	48	23.3	1	4	90	0.00	30.152 
20:00	41.2	41.2	41.2	48	23.0	2	5	90	0.00	30.151 
20:05	40.9	40.9	40.9	48	22.7	2	5	90	0.00	30.151 
20:10	40.8	40.8	40.8	49	23.1	2	6	90	0.00	30.151 
20:15	40.6	40.6	40.6	50	23.4	2	6	112	0.00	30.150 
20:20	40.3	40.3	40.3	50	23.2	1	6	112	0.00	30.150 
20:25	40.2	40.2	40.2	50	23.1	1	7	112	0.00	30.150 
20:30	40.1	40.1	40.1	49	22.5	2	10	90	0.00	30.154 
20:35	39.9	39.9	39.9	49	22.3	3	10	90	0.00	30.154 
20:40	39.6	39.6	39.6	50	22.5	3	6	90	0.00	30.154 
20:45	39.3	39.3	39.3	50	22.2	3	9	112	0.00	30.155 
20:50	39.1	39.1	39.1	51	22.5	2	7	112	0.00	30.155 
20:55	38.8	38.8	38.8	50	21.8	2	7	90	0.00	30.155 
21:00	38.5	38.5	38.5	50	21.5	2	10	90	0.00	30.156 
21:05	38.0	38.0	38.0	51	21.5	2	11	90	0.00	30.156 
21:10	37.8	37.8	37.8	52	21.8	3	10	112	0.00	30.156 
21:15	37.6	37.6	37.6	52	21.6	3	10	90	0.00	30.154 
21:20	37.3	37.3	37.3	53	21.8	2	9	112	0.00	30.154 
21:25	37.0	33.9	37.0	53	21.5	4	10	112	0.00	30.154 
21:30	36.9	33.7	36.9	53	21.4	4	8	112	0.00	30.157 
21:35	36.6	36.6	36.6	54	21.5	3	9	112	0.00	30.157 
21:40	36.5	36.5	36.5	55	21.9	2	5	90	0.00	30.157 
21:45	36.3	36.3	36.3	55	21.7	3	6	90	0.00	30.158 
21:50	36.0	32.7	36.0	55	21.4	4	10	90	0.00	30.158 
21:55	35.9	35.9	35.9	56	21.8	2	5	112	0.00	30.158 
22:00	35.8	35.8	35.8	57	22.1	2	6	112	0.00	30.152 
22:05	35.6	35.6	35.6	57	21.9	2	7	90	0.00	30.152 
22:10	35.5	35.5	35.5	58	22.2	3	8	90	0.00	30.152 
22:15	35.3	35.3	35.3	58	22.0	3	6	90	0.00	30.157 
22:20	35.2	35.2	35.2	58	21.9	2	6	90	0.00	30.157 
22:25	35.2	35.2	35.2	58	21.9	1	5	90	0.00	30.157 
22:30	35.0	35.0	35.0	59	22.1	2	4	90	0.00	30.159 
22:35	35.0	35.0	35.0	60	22.5	1	3	90	0.00	30.159 
22:40	34.9	34.9	34.9	59	22.0	2	7	90	0.00	30.159 
22:45	34.7	34.7	34.7	58	21.5	3	6	90	0.00	30.160 
22:50	34.7	34.7	34.7	58	21.5	3	7	90	0.00	30.160 
22:55	34.6	34.6	34.6	57	21.0	3	6	90	0.00	30.160 
23:00	34.4	34.4	34.4	57	20.8	3	9	112	0.00	30.160 
23:05	34.3	34.3	34.3	58	21.1	1	4	112	0.00	30.160 
23:10	34.1	34.1	34.1	58	20.9	1	3	112	0.00	30.160 
23:15	34.1	34.1	34.1	59	21.3	1	4	112	0.00	30.156 
23:20	34.0	34.0	34.0	57	20.4	2	6	112	0.00	30.156 
23:25	33.8	33.8	33.8	56	19.8	2	5	112	0.00	30.156 
23:30	33.8	33.8	33.8	56	19.8	2	6	68	0.00	30.145 
23:35	33.7	33.7	33.7	56	19.7	1	6	90	0.00	30.145 
23:40	33.7	33.7	33.7	56	19.7	3	7	90	0.00	30.145 
23:45	33.7	33.7	33.7	57	20.1	2	4	90	0.00	30.141 
23:50	33.5	33.5	33.5	57	19.9	3	7	112	0.00	30.141 
23:55	33.5	33.5	33.5	57	19.9	3	7	112	0.00	30.141 

CoCoRaHS
IN-AL-39
A2 Web Hosting
Creative Commons License
GoDaddy
search engine by freefind advanced

loaded 2018-11-20 06:59:31 • last modified 2010-11-18 10:43:29
Privacy PolicyDisclaimer
• wx.awcolley.com is powered by PmWiki v.2002016 •
• all content (unless otherwise noted) © 2018 A W Colley